Time;durP1;ratioP1;P1;durP2;ratioP2;P2;SDS_P1;SDS_P2;PMS_P1;PMS_P2;Temp;Humidity;BMP_temperature;BMP_pressure;BME280_temperature;BME280_humidity;BME280_pressure;Samples;Min_cycle;Max_cycle;Signal;HPM_P1;HPM_P2
2023/01/26 13:57:29;;;;;;;33.63;32.42;;;4.20;99.90;;;;;;4292899;27;20173;-86
2023/01/26 13:59:55;;;;;;;31.73;30.52;;;4.10;99.90;;;;;;4272442;27;20071;-84
2023/01/26 14:02:48;;;;;;;25.50;24.23;;;4.10;99.90;;;;;;4272316;27;20268;-86
2023/01/26 14:05:21;;;;;;;15.98;15.60;;;3.80;99.90;;;;;;4271860;27;20065;-85
2023/01/26 14:07:43;;;;;;;10.70;10.32;;;3.80;99.90;;;;;;4272382;27;20049;-85
2023/01/26 14:10:05;;;;;;;11.52;10.93;;;3.70;99.90;;;;;;4287701;27;20450;-85
2023/01/26 14:12:30;;;;;;;10.52;9.82;;;3.70;99.90;;;;;;4271423;27;20070;-85
2023/01/26 14:15:06;;;;;;;11.20;10.90;;;3.70;99.90;;;;;;4272374;27;20062;-85
2023/01/26 14:17:37;;;;;;;10.48;10.18;;;3.60;99.90;;;;;;4286674;27;20087;-85
2023/01/26 14:20:02;;;;;;;10.52;10.02;;;3.60;99.90;;;;;;4263310;27;20056;-85
2023/01/26 14:22:22;;;;;;;9.90;9.60;;;3.50;99.90;;;;;;4286316;27;20041;-85
2023/01/26 14:24:48;;;;;;;10.38;9.98;;;3.60;99.90;;;;;;4266727;27;20445;-85
2023/01/26 14:27:39;;;;;;;10.30;9.93;;;3.60;99.90;;;;;;4288180;27;20044;-85
2023/01/26 14:30:00;;;;;;;10.15;9.82;;;3.50;99.90;;;;;;4201160;28;20043;-85
2023/01/26 14:32:24;;;;;;;10.82;10.35;;;3.50;99.90;;;;;;4200385;28;20052;-85
2023/01/26 14:34:57;;;;;;;11.20;10.18;;;3.40;99.90;;;;;;4181659;28;20056;-85
2023/01/26 14:37:17;;;;;;;11.48;10.80;;;3.30;99.90;;;;;;4201186;28;20463;-85
2023/01/26 14:39:37;;;;;;;10.70;10.43;;;3.30;99.90;;;;;;4200320;28;20076;-85
2023/01/26 14:41:58;;;;;;;12.68;11.63;;;3.30;99.90;;;;;;4185515;28;20052;-85
2023/01/26 14:44:17;;;;;;;10.35;9.90;;;3.30;99.90;;;;;;4186952;28;20043;-85
2023/01/26 14:46:57;;;;;;;12.07;11.60;;;3.30;99.90;;;;;;4186569;28;20107;-85
2023/01/26 14:49:31;;;;;;;11.27;10.77;;;3.30;99.90;;;;;;4197320;28;20048;-85
2023/01/26 14:51:56;;;;;;;10.15;9.82;;;3.30;99.90;;;;;;4186541;28;20052;-85
2023/01/26 14:54:38;;;;;;;9.73;9.45;;;3.20;99.90;;;;;;4199803;28;20055;-85
2023/01/26 14:56:59;;;;;;;10.25;9.95;;;3.20;99.90;;;;;;4200345;28;20043;-85
2023/01/26 14:59:33;;;;;;;10.55;10.25;;;3.20;99.90;;;;;;4200202;28;20056;-85
2023/01/26 15:02:01;;;;;;;;;;;3.20;99.90;;;;;;4187050;28;20087;-85
2023/01/26 15:04:27;;;;;;;10.95;10.13;;;3.20;99.90;;;;;;4200488;28;20116;-85
2023/01/26 15:06:47;;;;;;;10.85;10.38;;;3.20;99.90;;;;;;4257659;27;20079;-85
2023/01/26 15:09:25;;;;;;;9.48;9.27;;;3.10;99.90;;;;;;4257002;27;20061;-85
2023/01/26 15:14:46;;;;;;;10.32;9.85;;;3.10;99.90;;;;;;4263628;27;20104;-85
2023/01/26 15:17:06;;;;;;;10.52;10.02;;;3.10;99.90;;;;;;4247359;27;20062;-85
2023/01/26 15:19:31;;;;;;;11.13;10.75;;;3.10;99.90;;;;;;4260798;27;20069;-85
2023/01/26 15:21:51;;;;;;;10.77;10.15;;;3.10;99.90;;;;;;4245786;27;20043;-85
2023/01/26 15:24:13;;;;;;;9.85;9.55;;;3.10;99.90;;;;;;4249698;28;20039;-85
2023/01/26 15:26:35;;;;;;;11.50;11.00;;;3.10;99.90;;;;;;4250558;27;20045;-85
2023/01/26 15:28:57;;;;;;;11.68;11.18;;;3.00;99.90;;;;;;4265552;27;20402;-85
2023/01/26 15:31:38;;;;;;;11.55;10.80;;;3.00;99.90;;;;;;4260934;27;20038;-85
2023/01/26 15:34:01;;;;;;;11.63;11.13;;;3.00;99.90;;;;;;4258246;28;20369;-85
2023/01/26 15:36:28;;;;;;;10.90;10.27;;;3.00;99.90;;;;;;4259421;27;20050;-85
2023/01/26 15:38:50;;;;;;;11.50;11.00;;;3.00;99.90;;;;;;4263586;27;20434;-85
2023/01/26 15:41:09;;;;;;;10.63;10.30;;;2.90;99.90;;;;;;4253902;27;20284;-85
2023/01/26 15:43:29;;;;;;;10.32;9.93;;;2.90;99.90;;;;;;4258334;27;20286;-85
2023/01/26 15:45:56;;;;;;;9.98;9.70;;;2.90;99.90;;;;;;4252610;27;20301;-85
2023/01/26 15:48:16;;;;;;;12.40;11.93;;;2.80;99.90;;;;;;4258446;27;20042;-85
2023/01/26 15:50:36;;;;;;;10.98;10.57;;;2.80;99.90;;;;;;4255370;27;20112;-84
2023/01/26 15:52:57;;;;;;;11.00;10.70;;;2.80;99.90;;;;;;4255746;27;20054;-84
2023/01/26 15:55:26;;;;;;;11.75;11.20;;;2.70;99.90;;;;;;4253938;27;20411;-84
2023/01/26 15:57:46;;;;;;;10.82;10.43;;;2.80;99.90;;;;;;4255296;27;20041;-84
2023/01/26 16:00:12;;;;;;;11.38;10.95;;;2.80;99.90;;;;;;4265111;27;20050;-84
2023/01/26 16:02:32;;;;;;;10.82;10.43;;;2.80;99.90;;;;;;4252579;27;20077;-84
2023/01/26 16:04:52;;;;;;;11.73;11.20;;;2.70;99.90;;;;;;4257972;27;20074;-85
2023/01/26 16:07:13;;;;;;;12.15;11.55;;;2.70;99.90;;;;;;4264036;27;20074;-84
2023/01/26 16:09:33;;;;;;;10.93;10.53;;;2.70;99.90;;;;;;4265679;27;20061;-84
2023/01/26 16:11:53;;;;;;;10.48;10.18;;;2.70;99.90;;;;;;4256993;27;20296;-85
2023/01/26 16:14:13;;;;;;;11.07;10.68;;;2.70;99.90;;;;;;4254444;27;20063;-85
2023/01/26 16:16:33;;;;;;;11.00;10.45;;;2.70;99.90;;;;;;4263059;27;20089;-84
2023/01/26 16:18:54;;;;;;;11.35;10.95;;;2.70;99.90;;;;;;4259717;27;20050;-85
2023/01/26 16:21:18;;;;;;;11.65;11.00;;;2.70;99.90;;;;;;4246432;27;20088;-84
2023/01/26 16:23:37;;;;;;;;;;;2.60;99.90;;;;;;4255279;27;20050;-85
2023/01/26 16:25:57;;;;;;;10.73;10.60;;;2.60;99.90;;;;;;4251193;27;19923;-84
2023/01/26 16:28:18;;;;;;;11.23;10.85;;;2.60;99.90;;;;;;4258003;27;20407;-84
2023/01/26 16:30:38;;;;;;;11.60;11.20;;;2.60;99.90;;;;;;4257929;27;20058;-84
2023/01/26 16:32:58;;;;;;;12.60;12.00;;;2.60;99.90;;;;;;4252395;27;20047;-84
2023/01/26 16:35:21;;;;;;;11.35;11.02;;;2.60;99.90;;;;;;4250531;27;20111;-84
2023/01/26 16:37:41;;;;;;;11.02;10.63;;;2.50;99.90;;;;;;4264189;27;20050;-84
2023/01/26 16:40:02;;;;;;;12.38;11.82;;;2.60;99.90;;;;;;4262602;27;20046;-84
2023/01/26 16:42:22;;;;;;;11.15;10.60;;;2.60;99.90;;;;;;4261572;27;20049;-84
2023/01/26 16:44:42;;;;;;;12.18;11.55;;;2.60;99.90;;;;;;4252246;27;20080;-84
2023/01/26 16:47:03;;;;;;;12.65;11.85;;;2.70;99.90;;;;;;4262805;27;20054;-84
2023/01/26 16:49:24;;;;;;;14.18;13.32;;;2.70;99.90;;;;;;4249709;27;20284;-84
2023/01/26 16:51:44;;;;;;;13.10;12.23;;;2.60;99.90;;;;;;4250041;27;20055;-84
2023/01/26 16:54:05;;;;;;;12.93;12.30;;;2.60;99.90;;;;;;4251395;27;20039;-84
2023/01/26 16:56:27;;;;;;;12.18;11.27;;;2.60;99.90;;;;;;4264986;27;20276;-84
2023/01/26 16:58:47;;;;;;;11.50;11.10;;;2.60;99.90;;;;;;4265407;27;20061;-84
2023/01/26 17:01:16;;;;;;;14.95;13.88;;;2.70;99.90;;;;;;4246151;27;20074;-84
2023/01/26 17:03:36;;;;;;;12.13;11.63;;;2.60;99.90;;;;;;4249876;27;20042;-84
2023/01/26 17:05:57;;;;;;;12.27;11.88;;;2.70;99.90;;;;;;4257534;27;20084;-84
2023/01/26 17:08:17;;;;;;;12.23;11.65;;;2.70;99.90;;;;;;4246925;28;20088;-84
2023/01/26 17:10:37;;;;;;;12.57;11.98;;;2.70;99.90;;;;;;4263723;27;20042;-84
2023/01/26 17:13:13;;;;;;;10.65;10.27;;;2.70;99.90;;;;;;4252395;27;20052;-84
2023/01/26 17:15:33;;;;;;;11.50;11.25;;;2.70;99.90;;;;;;4260129;27;20043;-84
2023/01/26 17:17:53;;;;;;;11.55;11.15;;;2.70;99.90;;;;;;4264868;27;20398;-85
2023/01/26 17:20:13;;;;;;;13.02;12.23;;;2.70;99.90;;;;;;4260308;27;20074;-83
2023/01/26 17:22:39;;;;;;;11.55;11.05;;;2.70;99.90;;;;;;4255291;27;20050;-84
2023/01/26 17:24:59;;;;;;;11.98;11.50;;;2.70;99.90;;;;;;4263915;27;20067;-84
2023/01/26 17:27:19;;;;;;;11.93;11.32;;;2.70;99.90;;;;;;4257490;27;20062;-84
2023/01/26 17:29:41;;;;;;;11.40;11.02;;;2.70;99.90;;;;;;4250009;27;20046;-84
2023/01/26 17:32:01;;;;;;;12.60;12.02;;;2.70;99.90;;;;;;4265024;27;20086;-84
2023/01/26 17:34:21;;;;;;;11.55;11.25;;;2.70;99.90;;;;;;4252677;27;20372;-84
2023/01/26 17:36:41;;;;;;;11.20;10.73;;;2.60;99.90;;;;;;4252072;27;20099;-84
2023/01/26 17:39:04;;;;;;;13.75;12.82;;;2.60;99.90;;;;;;4262615;27;20046;-84
2023/01/26 17:41:25;;;;;;;14.48;12.98;;;2.60;99.90;;;;;;4255646;27;20074;-84
2023/01/26 17:43:46;;;;;;;19.48;17.98;;;2.50;99.90;;;;;;4269984;27;20045;-84
2023/01/26 17:46:11;;;;;;;17.80;16.30;;;2.50;99.90;;;;;;4263404;27;20046;-84
2023/01/26 17:48:32;;;;;;;15.95;15.05;;;2.40;99.90;;;;;;4268253;27;20122;-84
2023/01/26 17:50:52;;;;;;;14.38;13.57;;;2.20;99.90;;;;;;4247130;27;20389;-84
2023/01/26 17:53:13;;;;;;;14.82;13.90;;;2.00;99.90;;;;;;4252354;27;20062;-84
2023/01/26 17:55:35;;;;;;;14.85;14.05;;;1.90;99.90;;;;;;4247101;27;20069;-84
2023/01/26 17:57:54;;;;;;;19.00;17.05;;;1.90;99.90;;;;;;4265339;27;20069;-84
2023/01/26 18:00:14;;;;;;;16.00;15.00;;;1.90;99.90;;;;;;4257487;27;20105;-84
2023/01/26 18:02:36;;;;;;;16.10;14.88;;;2.10;99.90;;;;;;4250524;27;20422;-84
2023/01/26 18:04:56;;;;;;;12.38;11.75;;;2.20;99.90;;;;;;4250681;27;20121;-84
2023/01/26 18:07:16;;;;;;;12.57;12.00;;;2.30;99.90;;;;;;4264320;27;20145;-83
2023/01/26 18:09:36;;;;;;;10.88;10.57;;;2.50;99.90;;;;;;4248180;27;20100;-84
2023/01/26 18:11:56;;;;;;;11.00;10.60;;;2.60;99.90;;;;;;4248480;27;20043;-84
2023/01/26 18:14:16;;;;;;;13.02;12.55;;;2.60;99.90;;;;;;4254977;27;20084;-84
2023/01/26 18:16:36;;;;;;;15.63;14.50;;;2.60;99.90;;;;;;4256010;27;20138;-84
2023/01/26 18:18:59;;;;;;;15.05;14.25;;;2.50;99.90;;;;;;4260145;27;20046;-84
2023/01/26 18:21:25;;;;;;;13.57;12.63;;;2.40;99.90;;;;;;4259514;27;20054;-84
2023/01/26 18:23:46;;;;;;;15.02;14.05;;;2.30;99.90;;;;;;4245931;27;20148;-84
2023/01/26 18:26:06;;;;;;;14.60;13.60;;;2.40;99.90;;;;;;4264002;27;20042;-84
2023/01/26 18:28:26;;;;;;;15.95;14.55;;;2.30;99.90;;;;;;4246081;27;20081;-84
2023/01/26 18:30:47;;;;;;;11.65;11.15;;;2.10;99.90;;;;;;4252631;27;20361;-84
2023/01/26 18:33:07;;;;;;;13.88;13.10;;;2.30;99.90;;;;;;4256432;27;20446;-84
2023/01/26 18:35:27;;;;;;;13.52;12.38;;;2.40;99.90;;;;;;4246403;28;20070;-84
2023/01/26 18:37:47;;;;;;;13.27;12.10;;;2.30;99.90;;;;;;4255988;27;20089;-84
2023/01/26 18:40:08;;;;;;;12.65;12.00;;;2.30;99.90;;;;;;4260115;27;20120;-84
2023/01/26 18:42:28;;;;;;;13.32;12.73;;;2.20;99.90;;;;;;4246676;27;20077;-84
2023/01/26 18:44:48;;;;;;;12.95;12.15;;;2.20;99.90;;;;;;4266837;27;20112;-84
2023/01/26 18:47:09;;;;;;;22.73;20.35;;;2.20;99.90;;;;;;4265094;27;20046;-84
2023/01/26 18:49:29;;;;;;;13.90;12.93;;;2.20;99.90;;;;;;4258999;27;20041;-84
2023/01/26 18:51:50;;;;;;;14.07;13.38;;;2.10;99.90;;;;;;4251168;27;20058;-84
2023/01/26 18:54:10;;;;;;;17.98;16.52;;;2.10;99.90;;;;;;4251655;27;20074;-84
2023/01/26 18:56:31;;;;;;;18.17;16.60;;;2.10;99.90;;;;;;4265448;27;20069;-84
2023/01/26 18:58:52;;;;;;;24.35;21.83;;;2.10;99.90;;;;;;4249527;27;20042;-84
2023/01/26 19:01:14;;;;;;;46.03;32.55;;;2.10;99.90;;;;;;4253740;27;20100;-84
2023/01/26 19:03:35;;;;;;;23.92;21.42;;;2.00;99.90;;;;;;4250470;27;20108;-84
2023/01/26 19:05:59;;;;;;;20.67;18.67;;;1.90;99.90;;;;;;4256116;27;20055;-84
2023/01/26 19:08:21;;;;;;;17.25;16.05;;;1.70;99.90;;;;;;4271519;27;20075;-84
2023/01/26 19:10:41;;;;;;;14.63;13.60;;;1.60;99.90;;;;;;4262471;27;20073;-84
2023/01/26 19:13:01;;;;;;;13.38;12.60;;;1.70;99.90;;;;;;4260437;27;20609;-84
2023/01/26 19:15:21;;;;;;;13.63;12.93;;;1.90;99.90;;;;;;4252281;27;20077;-84
2023/01/26 19:17:43;;;;;;;11.73;11.07;;;2.00;99.90;;;;;;4262999;27;20365;-84
2023/01/26 19:20:03;;;;;;;12.10;11.52;;;2.20;99.90;;;;;;4257243;27;20107;-82
2023/01/26 19:22:23;;;;;;;17.00;15.70;;;2.30;99.90;;;;;;4245475;27;20043;-83
2023/01/26 19:24:44;;;;;;;13.15;12.43;;;2.20;99.90;;;;;;4265535;27;20038;-82
2023/01/26 19:27:04;;;;;;;15.15;14.23;;;2.10;99.90;;;;;;4262726;27;20069;-82
2023/01/26 19:29:24;;;;;;;67.07;34.20;;;2.00;99.90;;;;;;4250604;27;20076;-83
2023/01/26 19:31:44;;;;;;;26.85;23.98;;;1.90;99.90;;;;;;4248244;27;20111;-82
2023/01/26 19:34:11;;;;;;;77.63;49.67;;;1.70;99.90;;;;;;4252766;27;20081;-82
2023/01/26 19:36:35;;;;;;;22.17;20.20;;;1.50;99.90;;;;;;4265947;27;20263;-83
2023/01/26 19:38:55;;;;;;;20.67;19.10;;;1.40;99.90;;;;;;4264412;27;20088;-83
2023/01/26 19:41:15;;;;;;;18.83;17.73;;;1.20;99.90;;;;;;4261382;27;20296;-82
2023/01/26 19:43:35;;;;;;;21.33;19.23;;;1.20;99.90;;;;;;4267985;27;20230;-82
2023/01/26 19:45:55;;;;;;;24.80;22.33;;;1.10;99.90;;;;;;4252770;27;20088;-83
2023/01/26 19:48:15;;;;;;;40.78;32.40;;;1.00;99.90;;;;;;4264503;27;20088;-83
2023/01/26 19:50:35;;;;;;;29.33;26.30;;;0.90;99.90;;;;;;4266578;27;20053;-83
2023/01/26 19:52:56;;;;;;;18.95;17.60;;;0.90;99.90;;;;;;4257969;27;20266;-83
2023/01/26 19:55:15;;;;;;;19.65;17.83;;;0.90;99.90;;;;;;4265381;27;20045;-83
2023/01/26 19:57:36;;;;;;;17.38;16.20;;;0.90;99.90;;;;;;4265476;27;20106;-82
2023/01/26 19:59:56;;;;;;;14.18;13.43;;;1.00;99.90;;;;;;4256710;27;20054;-83
2023/01/26 20:02:16;;;;;;;12.07;11.57;;;1.10;99.90;;;;;;4267560;27;20277;-83
2023/01/26 20:04:36;;;;;;;14.80;13.90;;;1.10;99.90;;;;;;4261291;27;20056;-83
2023/01/26 20:06:58;;;;;;;23.08;20.80;;;1.30;99.90;;;;;;4247412;27;20058;-83
2023/01/26 20:09:18;;;;;;;11.57;11.07;;;1.30;99.90;;;;;;4268318;27;20242;-83
2023/01/26 20:11:38;;;;;;;11.25;10.95;;;1.60;99.90;;;;;;4254060;27;20046;-83
2023/01/26 20:14:02;;;;;;;21.98;19.70;;;1.60;99.90;;;;;;4266076;27;20294;-83
2023/01/26 20:16:22;;;;;;;41.40;29.25;;;1.60;99.90;;;;;;4251579;28;20733;-83
2023/01/26 20:18:42;;;;;;;34.97;23.55;;;1.60;99.90;;;;;;4255521;27;20043;-82
2023/01/26 20:21:05;;;;;;;68.18;42.67;;;1.50;99.90;;;;;;4263527;27;20047;-83
2023/01/26 20:23:26;;;;;;;;;;;1.50;99.90;;;;;;4251498;27;20043;-83
2023/01/26 20:25:46;;;;;;;19.00;17.20;;;1.40;99.90;;;;;;4256667;27;20229;-83
2023/01/26 20:28:06;;;;;;;33.75;28.10;;;1.40;99.90;;;;;;4253439;27;20058;-83
2023/01/26 20:30:26;;;;;;;44.47;31.38;;;1.50;99.90;;;;;;4261555;27;20050;-83
2023/01/26 20:32:46;;;;;;;22.60;20.65;;;1.40;99.90;;;;;;4247690;27;20098;-83
2023/01/26 20:35:07;;;;;;;23.38;21.27;;;1.20;99.90;;;;;;4257980;27;20080;-83
2023/01/26 20:37:28;;;;;;;18.70;17.30;;;1.10;99.90;;;;;;4261252;27;20058;-83
2023/01/26 20:39:49;;;;;;;20.27;18.10;;;1.00;99.90;;;;;;4266019;27;20038;-82
2023/01/26 20:42:10;;;;;;;13.10;12.35;;;1.00;99.90;;;;;;4264858;27;20050;-83
2023/01/26 20:44:30;;;;;;;13.70;12.82;;;1.20;99.90;;;;;;4249601;27;20160;-83
2023/01/26 20:46:51;;;;;;;11.63;11.07;;;1.30;99.90;;;;;;4260203;27;20046;-83
2023/01/26 20:49:14;;;;;;;9.63;9.40;;;1.30;99.90;;;;;;4252435;27;20227;-82
2023/01/26 20:51:36;;;;;;;10.05;9.85;;;1.30;99.90;;;;;;4247165;27;20045;-82
2023/01/26 20:53:57;;;;;;;10.63;10.52;;;1.40;99.90;;;;;;4263758;27;20042;-82
2023/01/26 20:56:20;;;;;;;11.48;11.18;;;1.50;99.90;;;;;;4249157;27;20090;-83
2023/01/26 20:58:43;;;;;;;10.20;10.00;;;1.60;99.90;;;;;;4254945;27;20078;-82
2023/01/26 21:01:09;;;;;;;11.82;11.27;;;1.70;99.90;;;;;;4263894;27;20099;-83
2023/01/26 21:03:30;;;;;;;10.57;10.30;;;1.70;99.90;;;;;;4264408;27;20042;-82
2023/01/26 21:05:50;;;;;;;20.13;18.35;;;1.60;99.90;;;;;;4262978;27;20391;-82
2023/01/26 21:08:09;;;;;;;14.68;13.85;;;1.30;99.90;;;;;;4252213;27;20107;-82
2023/01/26 21:10:29;;;;;;;14.43;13.73;;;1.00;99.90;;;;;;4253269;27;20047;-82
2023/01/26 21:12:50;;;;;;;18.23;16.95;;;0.90;99.90;;;;;;4262156;27;20042;-82
2023/01/26 21:15:10;;;;;;;18.15;17.05;;;0.80;99.90;;;;;;4262694;27;20046;-82
2023/01/26 21:17:30;;;;;;;19.20;17.70;;;0.60;99.90;;;;;;4251865;27;20058;-82
2023/01/26 21:19:50;;;;;;;16.65;15.73;;;0.40;99.90;;;;;;4262938;27;20050;-82
2023/01/26 21:22:10;;;;;;;17.48;16.35;;;0.30;99.90;;;;;;4259057;27;20108;-82
2023/01/26 21:24:30;;;;;;;19.67;18.10;;;0.20;99.90;;;;;;4257606;27;20287;-82
2023/01/26 21:26:51;;;;;;;20.10;18.33;;;0.20;99.90;;;;;;4248887;27;20054;-83
2023/01/26 21:29:14;;;;;;;24.73;22.50;;;0.30;99.90;;;;;;4264138;27;20049;-83
2023/01/26 21:31:34;;;;;;;;;;;0.30;99.90;;;;;;4267311;27;20052;-82
2023/01/26 21:33:55;;;;;;;17.20;16.00;;;0.30;99.90;;;;;;4251865;27;19990;-83
2023/01/26 21:36:17;;;;;;;17.35;15.75;;;0.50;99.90;;;;;;4256616;27;20238;-82
2023/01/26 21:38:40;;;;;;;14.18;13.40;;;0.50;99.90;;;;;;4263542;27;20070;-82
2023/01/26 21:41:02;;;;;;;13.35;12.77;;;0.80;99.90;;;;;;4248531;27;20050;-82
2023/01/26 21:43:22;;;;;;;17.70;16.23;;;0.80;99.90;;;;;;4257404;27;20504;-82
2023/01/26 21:45:51;;;;;;;17.02;15.80;;;0.80;99.90;;;;;;4269580;27;20054;-82
2023/01/26 21:53:27;;;;;;;19.08;17.77;;;0.50;99.90;;;;;;4264387;27;20050;-83
2023/01/26 21:55:47;;;;;;;18.00;16.77;;;0.40;99.90;;;;;;4266863;27;20069;-83
2023/01/26 22:00:45;;;;;;;18.50;16.70;;;0.30;99.90;;;;;;4256448;28;20111;-82
2023/01/26 22:03:05;;;;;;;17.67;16.40;;;0.30;99.90;;;;;;4260686;27;20045;-83
2023/01/26 22:05:25;;;;;;;16.45;15.55;;;0.30;99.90;;;;;;4248270;27;20038;-82
2023/01/26 22:07:45;;;;;;;17.92;16.73;;;0.40;99.90;;;;;;4251124;27;20046;-83
2023/01/26 22:10:06;;;;;;;19.48;17.73;;;0.40;99.90;;;;;;4248235;27;20085;-82
2023/01/26 22:12:26;;;;;;;18.13;16.67;;;0.40;99.90;;;;;;4256313;28;20103;-83
2023/01/26 22:14:46;;;;;;;16.05;14.77;;;0.40;99.90;;;;;;4262560;27;20135;-83
2023/01/26 22:17:06;;;;;;;15.25;14.43;;;0.30;99.90;;;;;;4247650;27;20267;-83
2023/01/26 22:19:27;;;;;;;16.38;15.48;;;0.50;99.90;;;;;;4252786;27;20070;-83
2023/01/26 22:21:47;;;;;;;20.52;18.80;;;0.50;99.90;;;;;;4260045;27;20043;-83
2023/01/26 22:24:07;;;;;;;18.40;16.77;;;0.50;99.90;;;;;;4266993;27;20081;-83
2023/01/26 22:26:31;;;;;;;18.08;17.05;;;0.50;99.90;;;;;;4265882;27;20046;-83
2023/01/26 22:28:56;;;;;;;17.67;16.15;;;0.50;99.90;;;;;;4254852;27;20400;-83
2023/01/26 22:31:18;;;;;;;17.88;16.38;;;0.50;99.90;;;;;;4264611;27;20092;-83
2023/01/26 22:33:38;;;;;;;15.05;14.07;;;0.50;99.90;;;;;;4264610;27;20058;-82
2023/01/26 22:36:04;;;;;;;17.15;15.80;;;0.40;99.90;;;;;;4267084;27;20381;-82
2023/01/26 22:38:24;;;;;;;17.73;15.90;;;0.40;99.90;;;;;;4264276;27;20062;-83
2023/01/26 22:40:44;;;;;;;17.05;15.80;;;0.40;99.90;;;;;;4255418;27;20125;-83
2023/01/26 22:43:04;;;;;;;16.58;15.38;;;0.40;99.90;;;;;;4269880;27;20363;-82
2023/01/26 22:45:24;;;;;;;14.05;13.25;;;0.40;99.90;;;;;;4256561;27;20415;-82
2023/01/26 22:47:48;;;;;;;15.35;14.38;;;0.50;99.90;;;;;;4256128;27;20423;-82
2023/01/26 22:50:09;;;;;;;15.75;14.63;;;0.50;99.90;;;;;;4268224;27;20115;-82
2023/01/26 22:52:29;;;;;;;15.77;14.88;;;0.50;99.90;;;;;;4269276;27;20073;-83
2023/01/26 22:54:49;;;;;;;17.92;16.48;;;0.50;99.90;;;;;;4257239;27;20078;-83
2023/01/26 22:57:09;;;;;;;21.80;19.80;;;0.40;99.90;;;;;;4257653;27;20095;-83
2023/01/26 22:59:29;;;;;;;19.70;17.92;;;0.40;99.90;;;;;;4259663;27;20043;-82
2023/01/26 23:01:49;;;;;;;18.92;17.33;;;0.40;99.90;;;;;;4256396;27;20050;-82
2023/01/26 23:04:09;;;;;;;17.35;16.15;;;0.50;99.90;;;;;;4265549;27;20042;-82
2023/01/26 23:06:29;;;;;;;19.17;17.38;;;0.60;99.90;;;;;;4258403;27;20326;-82
2023/01/26 23:08:49;;;;;;;16.50;15.38;;;0.60;99.90;;;;;;4265173;27;20361;-83
2023/01/26 23:11:12;;;;;;;16.27;15.18;;;0.50;99.90;;;;;;4265436;27;20294;-83
2023/01/26 23:13:33;;;;;;;18.38;16.42;;;0.50;99.90;;;;;;4261698;27;20060;-83
2023/01/26 23:15:53;;;;;;;18.45;16.98;;;0.50;99.90;;;;;;4258511;27;20041;-82
2023/01/26 23:18:13;;;;;;;18.77;17.35;;;0.60;99.90;;;;;;4249088;27;20382;-82
2023/01/26 23:20:33;;;;;;;16.70;15.55;;;0.60;99.90;;;;;;4263582;27;20050;-82
2023/01/26 23:22:53;;;;;;;13.77;13.23;;;0.60;99.90;;;;;;4257652;27;20058;-82
2023/01/26 23:27:51;;;;;;;17.85;16.48;;;1.10;99.90;;;;;;4262347;27;20386;-83
2023/01/26 23:30:12;;;;;;;15.45;14.65;;;1.00;99.90;;;;;;4258423;27;20049;-82
2023/01/26 23:32:32;;;;;;;13.52;12.43;;;0.80;99.90;;;;;;4253929;27;20200;-82
2023/01/26 23:34:51;;;;;;;12.00;11.60;;;0.70;99.90;;;;;;4261924;27;20045;-82
2023/01/26 23:37:11;;;;;;;12.82;12.23;;;0.70;99.90;;;;;;4261663;27;20453;-83
2023/01/26 23:39:31;;;;;;;11.60;11.00;;;0.80;99.90;;;;;;4264745;27;20041;-83
2023/01/26 23:41:51;;;;;;;12.93;12.20;;;0.90;99.90;;;;;;4261794;27;20057;-83
2023/01/26 23:44:11;;;;;;;13.48;12.77;;;0.90;99.90;;;;;;4266753;27;20038;-83
2023/01/26 23:46:31;;;;;;;13.88;12.75;;;0.90;99.90;;;;;;4264788;27;20053;-82
2023/01/26 23:48:51;;;;;;;13.38;12.73;;;0.80;99.90;;;;;;4256045;27;20265;-83
2023/01/26 23:51:12;;;;;;;12.48;12.07;;;0.80;99.90;;;;;;4268481;27;20042;-82
2023/01/26 23:53:32;;;;;;;11.32;10.93;;;0.90;99.90;;;;;;4268733;27;20102;-83
2023/01/26 23:55:52;;;;;;;12.07;11.60;;;0.90;99.90;;;;;;4264104;27;20083;-83
2023/01/26 23:58:12;;;;;;;10.88;10.38;;;0.90;99.90;;;;;;4255615;27;20076;-83
